createdAt,value
2018-08-14T00:03:34.636Z,17.00
2018-08-14T00:07:37.545Z,17.10
2018-08-14T00:11:40.095Z,17.10
2018-08-14T00:15:44.348Z,17.10
2018-08-14T00:19:46.902Z,17.10
2018-08-14T00:23:49.601Z,17.10
2018-08-14T00:27:53.237Z,17.10
2018-08-14T00:31:55.890Z,17.10
2018-08-14T00:36:05.641Z,17.10
2018-08-14T00:40:14.104Z,17.00
2018-08-14T00:44:16.673Z,17.10
2018-08-14T00:48:19.318Z,17.10
2018-08-14T00:52:21.970Z,17.00
2018-08-14T00:56:24.592Z,17.00
2018-08-14T01:00:31.373Z,17.00
2018-08-14T01:04:34.143Z,17.00
2018-08-14T01:08:36.705Z,17.10
2018-08-14T01:12:43.818Z,17.20
2018-08-14T01:16:46.613Z,17.10
2018-08-14T01:20:51.188Z,17.10
2018-08-14T01:24:53.828Z,17.20
2018-08-14T01:28:56.435Z,17.20
2018-08-14T01:32:59.101Z,17.10
2018-08-14T01:37:01.638Z,17.00
2018-08-14T01:41:04.274Z,17.00
2018-08-14T01:45:09.032Z,16.90
2018-08-14T01:49:11.671Z,16.80
2018-08-14T01:53:14.242Z,16.80
2018-08-14T01:57:16.851Z,16.70
2018-08-14T02:01:19.499Z,16.70
2018-08-14T02:05:22.205Z,16.60
2018-08-14T02:09:24.847Z,16.70
2018-08-14T02:13:27.489Z,16.80
2018-08-14T02:17:30.077Z,16.80
2018-08-14T02:21:32.871Z,16.80
2018-08-14T02:25:35.586Z,16.70
2018-08-14T02:29:38.327Z,16.80
2018-08-14T02:33:40.955Z,16.80
2018-08-14T02:37:43.510Z,16.90
2018-08-14T02:41:46.154Z,16.90
2018-08-14T02:45:48.839Z,17.00
2018-08-14T02:49:51.634Z,17.00
2018-08-14T02:53:54.223Z,16.90
2018-08-14T02:57:56.858Z,17.00
2018-08-14T03:01:59.415Z,16.90
2018-08-14T03:06:02.158Z,16.90
2018-08-14T03:10:06.713Z,17.00
2018-08-14T03:14:09.453Z,17.00
2018-08-14T03:18:12.104Z,17.10
2018-08-14T03:22:14.672Z,17.20
2018-08-14T03:26:17.299Z,17.20
2018-08-14T03:30:19.886Z,17.20
2018-08-14T03:34:22.461Z,17.20
2018-08-14T03:38:25.049Z,17.40
2018-08-14T03:42:27.674Z,17.20
2018-08-14T03:46:30.395Z,17.20
2018-08-14T03:50:33.005Z,17.30
2018-08-14T03:54:35.809Z,17.30
2018-08-14T03:58:38.452Z,17.40
2018-08-14T04:02:41.189Z,17.40
2018-08-14T04:06:43.872Z,17.30
2018-08-14T04:10:46.485Z,17.30
2018-08-14T04:14:49.109Z,17.40
2018-08-14T04:18:51.636Z,17.30
2018-08-14T04:22:54.299Z,17.30
2018-08-14T04:26:56.922Z,17.30
2018-08-14T04:30:59.549Z,17.30
2018-08-14T04:35:02.247Z,17.40
2018-08-14T04:39:07.739Z,17.40
2018-08-14T04:43:10.428Z,17.40
2018-08-14T04:47:13.069Z,17.50
2018-08-14T04:51:15.703Z,17.40
2018-08-14T04:55:18.375Z,17.40
2018-08-14T04:59:20.993Z,17.40
2018-08-14T05:03:23.568Z,17.40
2018-08-14T05:07:26.101Z,17.50
2018-08-14T05:11:28.657Z,17.50
2018-08-14T05:15:31.204Z,17.60
2018-08-14T05:19:33.826Z,17.60
2018-08-14T05:23:36.426Z,17.50
2018-08-14T05:27:39.450Z,17.40
2018-08-14T05:31:42.076Z,17.40
2018-08-14T05:35:44.897Z,17.40
2018-08-14T05:39:47.656Z,17.50
2018-08-14T05:43:50.282Z,17.50
2018-08-14T05:47:52.975Z,17.60
2018-08-14T05:51:55.581Z,17.50
2018-08-14T05:55:58.192Z,17.60
2018-08-14T06:00:00.892Z,17.60
2018-08-14T06:04:03.735Z,17.60
2018-08-14T06:08:06.422Z,17.70
2018-08-14T06:12:09.020Z,17.70
2018-08-14T06:16:11.585Z,17.70
2018-08-14T06:20:15.889Z,17.70
2018-08-14T06:24:18.486Z,17.70
2018-08-14T06:28:21.205Z,17.80
2018-08-14T06:32:23.832Z,17.80
2018-08-14T06:36:26.472Z,17.80
2018-08-14T06:40:29.174Z,17.70
2018-08-14T06:44:31.747Z,17.70
2018-08-14T06:48:34.367Z,17.80
2018-08-14T06:52:36.997Z,17.80
2018-08-14T06:56:39.615Z,17.80
2018-08-14T07:00:42.200Z,17.80
2018-08-14T07:04:44.834Z,17.90
2018-08-14T07:08:47.455Z,18.00
2018-08-14T07:12:50.925Z,18.00
2018-08-14T07:16:53.573Z,18.10
2018-08-14T07:20:56.234Z,18.10
2018-08-14T07:24:58.875Z,18.10
2018-08-14T07:29:01.610Z,18.20
2018-08-14T07:33:04.264Z,18.40
2018-08-14T07:37:06.894Z,18.90
2018-08-14T07:41:09.446Z,18.90
2018-08-14T07:45:13.541Z,18.80
2018-08-14T07:49:16.217Z,18.60
2018-08-14T07:53:18.809Z,18.50
2018-08-14T07:57:21.621Z,18.40
2018-08-14T08:01:24.212Z,18.50
2018-08-14T08:05:26.893Z,18.50
2018-08-14T08:09:29.453Z,18.70
2018-08-14T08:13:32.059Z,18.70
2018-08-14T08:17:34.667Z,18.70
2018-08-14T08:21:37.348Z,18.70
2018-08-14T08:25:40.067Z,18.70
2018-08-14T08:29:42.585Z,18.80
2018-08-14T08:33:45.133Z,18.60
2018-08-14T08:37:47.843Z,18.30
2018-08-14T08:41:50.553Z,18.10
2018-08-14T08:45:54.074Z,18.20
2018-08-14T08:49:56.744Z,19.00
2018-08-14T08:53:59.336Z,20.00
2018-08-14T08:58:01.946Z,20.80
2018-08-14T09:02:04.733Z,21.60
2018-08-14T09:06:07.554Z,21.70
2018-08-14T09:10:11.124Z,21.50
2018-08-14T09:14:14.026Z,21.40
2018-08-14T09:18:16.622Z,21.30
2018-08-14T09:22:19.230Z,21.30
2018-08-14T09:26:21.872Z,21.50
2018-08-14T09:30:24.437Z,21.60
2018-08-14T09:34:27.053Z,21.50
2018-08-14T09:38:29.760Z,21.60
2018-08-14T09:42:32.404Z,21.40
2018-08-14T09:46:35.133Z,20.80
2018-08-14T09:50:37.729Z,20.40
2018-08-14T09:54:40.286Z,20.90
2018-08-14T09:58:42.890Z,21.50
2018-08-14T10:02:45.576Z,21.60
2018-08-14T10:06:54.229Z,21.60
2018-08-14T10:10:56.902Z,21.60
2018-08-14T10:15:01.646Z,21.50
2018-08-14T10:19:04.260Z,21.50
2018-08-14T10:23:07.006Z,21.40
2018-08-14T10:27:09.775Z,21.30
2018-08-14T10:31:12.466Z,20.90
2018-08-14T10:35:15.152Z,20.80
2018-08-14T10:39:17.723Z,20.60
2018-08-14T10:43:20.399Z,20.40
2018-08-14T10:47:23.053Z,20.30
2018-08-14T10:51:25.683Z,20.30
2018-08-14T10:55:28.748Z,20.30
2018-08-14T10:59:31.471Z,20.30
2018-08-14T11:03:34.865Z,20.30
2018-08-14T11:07:37.712Z,20.30
2018-08-14T11:11:46.056Z,20.60
2018-08-14T11:15:48.752Z,20.80
2018-08-14T11:19:51.396Z,20.90
2018-08-14T11:23:54.026Z,20.80
2018-08-14T11:27:56.666Z,20.70
2018-08-14T11:31:59.437Z,20.80
2018-08-14T11:36:06.003Z,20.70
2018-08-14T11:40:10.229Z,20.80
2018-08-14T11:44:13.148Z,20.90
2018-08-14T11:48:15.871Z,20.80
2018-08-14T11:52:18.583Z,20.70
2018-08-14T11:56:21.214Z,21.10
2018-08-14T12:00:25.171Z,21.40
2018-08-14T12:04:27.764Z,21.70
2018-08-14T12:08:30.440Z,22.20
2018-08-14T12:12:33.140Z,22.40
2018-08-14T12:16:35.825Z,22.60
2018-08-14T12:20:38.497Z,22.90
2018-08-14T12:24:41.171Z,22.90
2018-08-14T12:28:43.838Z,23.30
2018-08-14T12:32:47.045Z,23.50
2018-08-14T12:36:50.524Z,23.60
2018-08-14T12:40:53.191Z,24.10
2018-08-14T12:44:55.874Z,24.20
2018-08-14T12:48:58.564Z,23.80
2018-08-14T12:53:01.366Z,23.90
2018-08-14T12:57:03.941Z,24.00
2018-08-14T13:01:06.569Z,24.40
2018-08-14T13:05:09.228Z,24.80
2018-08-14T13:09:12.057Z,25.10
2018-08-14T13:13:14.907Z,25.70
2018-08-14T13:17:17.795Z,25.30
2018-08-14T13:21:20.430Z,25.20
2018-08-14T13:25:23.162Z,25.70
2018-08-14T13:29:25.774Z,25.90
2018-08-14T13:33:28.433Z,25.50
2018-08-14T13:37:31.074Z,25.60
2018-08-14T13:41:33.685Z,26.10
2018-08-14T13:45:36.285Z,26.00
2018-08-14T13:49:38.857Z,25.70
2018-08-14T13:53:41.614Z,25.60
2018-08-14T13:57:44.634Z,25.10
2018-08-14T14:01:47.377Z,24.70
2018-08-14T14:05:50.119Z,24.50
2018-08-14T14:09:52.743Z,24.60
2018-08-14T14:13:55.372Z,24.50
2018-08-14T14:17:58.049Z,24.30
2018-08-14T14:22:00.697Z,24.30
2018-08-14T14:26:03.343Z,24.60
2018-08-14T14:30:10.271Z,24.40
2018-08-14T14:34:12.954Z,24.50
2018-08-14T14:38:15.608Z,24.90
2018-08-14T14:42:20.929Z,25.40
2018-08-14T14:46:24.049Z,25.50
2018-08-14T14:50:27.099Z,25.10
2018-08-14T14:54:30.607Z,24.50
2018-08-14T14:58:33.697Z,24.70
2018-08-14T15:02:37.055Z,24.80
2018-08-14T15:06:39.779Z,24.80
2018-08-14T15:10:42.448Z,25.20
2018-08-14T15:14:45.285Z,25.00
2018-08-14T15:18:47.921Z,24.90
2018-08-14T15:22:51.997Z,25.00
2018-08-14T15:26:54.681Z,24.80
2018-08-14T15:30:57.365Z,24.50
2018-08-14T15:34:59.992Z,24.50
2018-08-14T15:39:05.040Z,24.60
2018-08-14T15:43:07.634Z,24.70
2018-08-14T15:47:10.278Z,24.40
2018-08-14T15:51:16.672Z,24.40
2018-08-14T15:55:20.381Z,24.50
2018-08-14T15:59:23.406Z,24.50
2018-08-14T16:03:27.056Z,24.40
2018-08-14T16:07:29.715Z,24.50
2018-08-14T16:11:32.386Z,24.30
2018-08-14T16:15:34.978Z,24.10
2018-08-14T16:19:37.592Z,23.80
2018-08-14T16:23:40.352Z,23.80
2018-08-14T16:27:42.951Z,23.80
2018-08-14T16:31:45.661Z,23.70
2018-08-14T16:35:48.321Z,23.60
2018-08-14T16:39:50.954Z,23.60
2018-08-14T16:43:53.749Z,23.60
2018-08-14T16:47:56.419Z,23.60
2018-08-14T16:51:59.070Z,23.60
2018-08-14T16:56:01.749Z,23.60
2018-08-14T17:00:05.853Z,23.50
2018-08-14T17:04:08.514Z,23.40
2018-08-14T17:08:12.157Z,23.40
2018-08-14T17:12:14.789Z,23.30
2018-08-14T17:16:17.433Z,23.30
2018-08-14T17:20:19.233Z,23.20
2018-08-14T17:24:21.967Z,23.10
2018-08-14T17:28:24.652Z,23.00
2018-08-14T17:32:27.346Z,22.90
2018-08-14T17:36:30.091Z,22.80
2018-08-14T17:40:32.766Z,22.80
2018-08-14T17:44:35.387Z,22.80
2018-08-14T17:48:37.979Z,22.70
2018-08-14T17:52:41.314Z,22.60
2018-08-14T17:56:43.970Z,22.50
2018-08-14T18:00:46.617Z,22.40
2018-08-14T18:04:49.338Z,22.40
2018-08-14T18:08:51.994Z,22.30
2018-08-14T18:12:54.696Z,22.20
2018-08-14T18:16:57.304Z,22.10
2018-08-14T18:21:01.337Z,21.90
2018-08-14T18:25:03.952Z,21.70
2018-08-14T18:29:06.683Z,21.70
2018-08-14T18:33:09.379Z,21.60
2018-08-14T18:37:12.025Z,21.50
2018-08-14T18:41:14.720Z,21.50
2018-08-14T18:45:18.622Z,21.50
2018-08-14T18:49:21.310Z,21.50
2018-08-14T18:53:23.953Z,21.40
2018-08-14T18:57:26.588Z,21.30
2018-08-14T19:01:29.169Z,21.20
2018-08-14T19:05:31.783Z,21.20
2018-08-14T19:09:34.515Z,21.10
2018-08-14T19:13:37.156Z,21.00
2018-08-14T19:17:40.001Z,20.90
2018-08-14T19:21:42.636Z,20.90
2018-08-14T19:25:45.388Z,20.80
2018-08-14T19:29:48.081Z,20.90
2018-08-14T19:33:50.773Z,20.80
2018-08-14T19:37:53.408Z,20.80
2018-08-14T19:41:56.025Z,20.80
2018-08-14T19:45:58.811Z,20.70
2018-08-14T19:50:01.644Z,20.70
2018-08-14T19:54:04.303Z,20.80
2018-08-14T19:58:07.012Z,20.80
2018-08-14T20:02:09.634Z,20.60
2018-08-14T20:06:12.397Z,20.60
2018-08-14T20:10:15.097Z,20.70
2018-08-14T20:14:17.743Z,20.60
2018-08-14T20:18:20.516Z,20.50
2018-08-14T20:22:23.226Z,20.50
2018-08-14T20:26:25.873Z,20.50
2018-08-14T20:30:28.511Z,20.40
2018-08-14T20:34:31.368Z,20.40
2018-08-14T20:38:34.204Z,20.30
2018-08-14T20:42:36.917Z,20.30
2018-08-14T20:46:39.853Z,20.40
2018-08-14T20:50:42.509Z,20.60
2018-08-14T20:54:45.174Z,20.50
2018-08-14T20:58:47.850Z,20.40
2018-08-14T21:02:51.227Z,20.30
2018-08-14T21:06:53.886Z,20.30
2018-08-14T21:10:56.429Z,20.50
2018-08-14T21:14:59.095Z,20.40
2018-08-14T21:19:01.716Z,20.40
2018-08-14T21:23:04.341Z,20.20
2018-08-14T21:27:06.925Z,20.20
2018-08-14T21:31:09.566Z,20.10
2018-08-14T21:35:14.744Z,20.10
2018-08-14T21:39:17.363Z,20.10
2018-08-14T21:43:20.002Z,20.10
2018-08-14T21:47:22.614Z,20.00
2018-08-14T21:51:25.205Z,20.00
2018-08-14T21:55:28.707Z,20.20
2018-08-14T21:59:32.052Z,20.10
2018-08-14T22:03:39.217Z,20.20
2018-08-14T22:07:42.385Z,20.30
2018-08-14T22:11:45.009Z,20.20
2018-08-14T22:15:47.766Z,20.20
2018-08-14T22:19:50.310Z,20.40
2018-08-14T22:23:52.968Z,20.50
2018-08-14T22:27:55.644Z,20.30
2018-08-14T22:31:58.287Z,20.20
2018-08-14T22:36:00.909Z,20.00
2018-08-14T22:40:03.907Z,20.00
2018-08-14T22:44:06.935Z,20.00
2018-08-14T22:48:09.525Z,20.00
2018-08-14T22:52:12.098Z,19.90
2018-08-14T22:56:14.833Z,20.00
2018-08-14T23:00:17.478Z,19.80
2018-08-14T23:04:20.137Z,19.70
2018-08-14T23:08:22.862Z,19.70
2018-08-14T23:12:25.629Z,19.80
2018-08-14T23:16:29.188Z,19.80
2018-08-14T23:20:32.062Z,19.90
2018-08-14T23:24:34.742Z,19.90
2018-08-14T23:28:52.358Z,19.60
2018-08-14T23:32:55.077Z,19.80
2018-08-14T23:36:57.727Z,19.80
2018-08-14T23:41:00.344Z,19.60
2018-08-14T23:45:03.052Z,19.60
2018-08-14T23:49:05.783Z,19.70
2018-08-14T23:53:08.366Z,19.70
2018-08-14T23:57:11.209Z,19.50
